Time;durP1;ratioP1;P1;durP2;ratioP2;P2;SDS_P1;SDS_P2;PMS_P1;PMS_P2;Temp;Humidity;BMP_temperature;BMP_pressure;BME280_temperature;BME280_humidity;BME280_pressure;Samples;Min_cycle;Max_cycle;Signal;HPM_P1;HPM_P2
2022/05/22 00:00:34;;;;;;;14.70;8.13;;;;;;;21.81;51.27;102088.78;5091027;28;20079;-59
2022/05/22 00:03:01;;;;;;;15.48;8.68;;;;;;;21.80;51.52;102079.81;5086894;28;20557;-59
2022/05/22 00:05:27;;;;;;;13.52;7.95;;;;;;;21.80;51.61;102082.53;5087223;28;20055;-60
2022/05/22 00:07:54;;;;;;;14.52;8.10;;;;;;;21.80;51.03;102085.22;5086388;28;20056;-58
2022/05/22 00:10:20;;;;;;;13.57;8.05;;;;;;;21.78;51.45;102080.97;5088596;28;20054;-60
2022/05/22 00:12:47;;;;;;;12.98;7.57;;;;;;;21.77;51.52;102082.81;5082719;28;20135;-59
2022/05/22 00:15:15;;;;;;;11.57;7.20;;;;;;;21.77;51.51;102073.88;5086742;28;20426;-59
2022/05/22 00:17:42;;;;;;;13.55;8.55;;;;;;;21.77;51.54;102058.53;5085050;28;20131;-59
2022/05/22 00:20:09;;;;;;;13.48;8.23;;;;;;;21.76;51.71;102056.84;5086266;28;20051;-60
2022/05/22 00:22:36;;;;;;;14.65;7.70;;;;;;;21.76;51.72;102050.59;5086633;28;20036;-59
2022/05/22 00:25:05;;;;;;;15.40;8.93;;;;;;;21.75;51.76;102059.66;5087938;28;20054;-59
2022/05/22 00:27:32;;;;;;;15.63;8.55;;;;;;;21.73;52.00;102062.53;5085320;28;20040;-58
2022/05/22 00:30:00;;;;;;;12.57;7.90;;;;;;;21.73;51.82;102058.97;5070790;28;20047;-58
2022/05/22 00:32:27;;;;;;;16.05;8.82;;;;;;;21.73;52.04;102058.97;5069513;28;20032;-58
2022/05/22 00:34:53;;;;;;;15.68;7.55;;;;;;;21.73;52.06;102050.88;5087054;28;20131;-59
2022/05/22 00:37:20;;;;;;;13.15;7.93;;;;;;;21.72;51.77;102049.19;5086567;28;20135;-59
2022/05/22 00:39:47;;;;;;;12.88;7.63;;;;;;;21.68;52.37;102054.88;5078903;28;20138;-59
2022/05/22 00:42:19;;;;;;;14.63;7.50;;;;;;;21.68;52.08;102054.88;5085465;28;20054;-59
2022/05/22 00:44:47;;;;;;;12.30;7.68;;;;;;;21.67;52.13;102050.50;5085885;28;20044;-59
2022/05/22 00:47:14;;;;;;;12.63;7.15;;;;;;;21.67;52.11;102042.38;5087247;28;20085;-59
2022/05/22 00:49:43;;;;;;;12.88;7.68;;;;;;;21.66;52.02;102043.38;5086330;28;20051;-59
2022/05/22 00:52:18;;;;;;;13.13;7.00;;;;;;;21.63;51.92;102041.00;5086909;28;20098;-58
2022/05/22 00:54:53;;;;;;;10.48;6.82;;;;;;;21.65;52.30;102038.13;5088460;28;20097;-59
2022/05/22 00:57:39;;;;;;;11.25;6.78;;;;;;;21.64;51.77;102033.75;5085713;28;20083;-59
2022/05/22 01:00:15;;;;;;;14.10;7.53;;;;;;;21.64;51.85;102041.84;5088874;28;20044;-58
2022/05/22 01:05:35;;;;;;;12.57;6.28;;;;;;;21.60;52.01;102035.88;5087683;28;20051;-59
2022/05/22 01:08:03;;;;;;;12.82;7.25;;;;;;;21.59;52.06;102030.66;5084866;28;20074;-58
2022/05/22 01:10:37;;;;;;;12.07;6.43;;;;;;;21.58;51.95;102037.03;5086062;28;20042;-58
2022/05/22 01:13:04;;;;;;;12.35;6.88;;;;;;;21.59;51.83;102033.34;5082916;28;20044;-59
2022/05/22 01:15:32;;;;;;;11.40;7.18;;;;;;;21.58;52.09;102026.22;5084062;28;20040;-59
2022/05/22 01:17:58;;;;;;;13.07;6.85;;;;;;;21.57;52.09;102021.84;5084974;28;21291;-59
2022/05/22 01:20:25;;;;;;;12.57;7.63;;;;;;;21.58;52.17;102028.91;5086013;28;20050;-58
2022/05/22 01:22:51;;;;;;;12.27;6.65;;;;;;;21.55;52.08;102024.69;5081097;28;20076;-58
2022/05/22 01:25:18;;;;;;;10.07;6.07;;;;;;;;;;5085460;28;20039;-58
2022/05/22 01:27:44;;;;;;;10.20;6.38;;;;;;;21.53;51.83;102037.47;5087583;28;20048;-58
2022/05/22 01:30:16;;;;;;;11.63;6.75;;;;;;;21.52;52.19;102035.78;5084541;28;20053;-57
2022/05/22 01:32:45;;;;;;;10.82;6.32;;;;;;;21.52;52.27;102032.22;5088518;28;20126;-58
2022/05/22 01:35:18;;;;;;;11.38;6.00;;;;;;;21.52;51.88;102040.31;5085053;28;20137;-58
2022/05/22 01:37:45;;;;;;;9.70;5.78;;;;;;;21.50;52.08;102032.34;5082748;28;20166;-59
2022/05/22 01:40:12;;;;;;;10.52;6.30;;;;;;;21.50;52.16;102029.66;5081793;28;20056;-58
2022/05/22 01:42:40;;;;;;;13.50;6.75;;;;;;;21.50;51.99;102024.25;5085260;28;20058;-58
2022/05/22 01:45:09;;;;;;;8.63;5.32;;;;;;;21.50;52.16;102020.72;5082307;28;20052;-58
2022/05/22 01:47:38;;;;;;;9.65;6.10;;;;;;;21.48;51.94;102020.88;5086080;28;20557;-59
2022/05/22 01:50:06;;;;;;;10.90;6.07;;;;;;;21.48;52.20;102006.53;5088208;28;20102;-58
2022/05/22 01:52:33;;;;;;;12.70;6.47;;;;;;;21.47;52.26;102011.09;5084232;28;20056;-57
2022/05/22 01:54:59;;;;;;;8.98;4.88;;;;;;;21.46;52.59;101995.88;5088072;28;20066;-58
2022/05/22 01:57:27;;;;;;;9.43;5.72;;;;;;;21.44;52.16;102001.44;5082902;28;20119;-59
2022/05/22 01:59:54;;;;;;;9.32;5.40;;;;;;;21.44;52.42;101993.34;5066549;28;20055;-58
2022/05/22 02:02:20;;;;;;;9.95;5.35;;;;;;;21.44;52.38;101989.81;5082585;28;20123;-58
2022/05/22 02:04:47;;;;;;;11.18;5.60;;;;;;;21.43;52.21;101994.34;5085925;28;20031;-59
2022/05/22 02:10:00;;;;;;;11.85;5.32;;;;;;;21.41;52.14;101987.41;5085788;28;20316;-59
2022/05/22 02:12:26;;;;;;;9.38;4.85;;;;;;;21.41;52.53;101990.09;5080389;28;20083;-58
2022/05/22 02:14:53;;;;;;;11.02;4.97;;;;;;;21.39;52.35;101984.84;5085612;28;20123;-58
2022/05/22 02:17:19;;;;;;;9.10;5.10;;;;;;;21.39;52.54;101986.72;5084642;28;20032;-57
2022/05/22 02:19:46;;;;;;;7.50;4.72;;;;;;;21.38;52.96;101985.84;5086725;28;20284;-57
2022/05/22 02:22:13;;;;;;;10.55;4.75;;;;;;;21.38;52.55;101982.28;5085743;28;20056;-58
2022/05/22 02:24:39;;;;;;;9.80;5.10;;;;;;;21.38;52.44;101985.84;5084949;28;20090;-59
2022/05/22 02:27:06;;;;;;;9.55;5.10;;;;;;;21.37;52.55;101980.59;5085627;28;20044;-57
2022/05/22 02:29:35;;;;;;;11.02;5.05;;;;;;;21.37;52.47;101975.22;5085497;28;20039;-57
2022/05/22 02:32:02;;;;;;;8.48;4.63;;;;;;;21.35;52.33;101969.97;5083631;28;20510;-57
2022/05/22 02:34:29;;;;;;;8.65;4.93;;;;;;;21.36;52.29;101973.50;5086577;28;20050;-58
2022/05/22 02:36:55;;;;;;;7.40;4.53;;;;;;;21.36;52.75;101976.22;5081227;28;20130;-57
2022/05/22 02:39:22;;;;;;;9.35;4.20;;;;;;;21.34;52.06;101968.25;5084540;28;20179;-58
2022/05/22 02:41:48;;;;;;;7.32;4.65;;;;;;;21.33;52.71;101963.00;5084499;28;20048;-58
2022/05/22 02:44:15;;;;;;;8.43;4.47;;;;;;;21.33;52.10;101965.72;5085297;28;20044;-58
2022/05/22 02:46:42;;;;;;;8.65;4.55;;;;;;;21.32;52.96;101966.69;5086398;28;20039;-57
2022/05/22 02:49:08;;;;;;;6.70;4.28;;;;;;;21.32;52.49;101969.38;5084626;28;20048;-58
2022/05/22 02:51:35;;;;;;;9.13;4.68;;;;;;;21.32;52.45;101954.06;5086644;28;20335;-58
2022/05/22 02:54:03;;;;;;;6.95;3.90;;;;;;;21.31;52.65;101956.91;5089328;28;20042;-57
2022/05/22 02:56:29;;;;;;;7.55;4.72;;;;;;;21.29;52.79;101943.53;5087701;28;20050;-58
2022/05/22 02:58:56;;;;;;;6.38;4.00;;;;;;;21.29;52.57;101950.78;5086127;28;20050;-57
2022/05/22 03:01:23;;;;;;;6.03;4.03;;;;;;;21.28;52.60;101946.41;5087309;28;20486;-57
2022/05/22 03:03:50;;;;;;;7.30;3.83;;;;;;;21.26;52.67;101943.00;5089595;28;20040;-58
2022/05/22 03:09:04;;;;;;;8.00;4.20;;;;;;;21.26;52.38;101945.69;5087167;28;20080;-58
2022/05/22 03:11:30;;;;;;;8.00;3.97;;;;;;;21.26;52.68;101948.38;5086551;28;20043;-57
2022/05/22 03:13:57;;;;;;;6.63;4.03;;;;;;;21.24;52.92;101953.94;5088472;28;20055;-58
2022/05/22 03:16:24;;;;;;;6.53;4.40;;;;;;;21.23;52.24;101959.47;5086540;28;20196;-58
2022/05/22 03:18:50;;;;;;;6.50;3.67;;;;;;;21.23;52.54;101959.47;5087610;28;20044;-58
2022/05/22 03:21:17;;;;;;;6.80;3.85;;;;;;;21.22;52.71;101952.38;5088694;28;20056;-59
2022/05/22 03:23:43;;;;;;;6.05;3.70;;;;;;;21.23;52.63;101948.69;5086089;28;20047;-57
2022/05/22 03:26:10;;;;;;;7.25;3.55;;;;;;;21.20;52.74;101937.19;5089214;28;20048;-58
2022/05/22 03:28:37;;;;;;;7.30;4.03;;;;;;;21.20;52.64;101933.66;5087081;28;20118;-59
2022/05/22 03:31:04;;;;;;;5.82;3.55;;;;;;;21.19;52.61;101935.50;5086347;28;20344;-58
2022/05/22 03:33:31;;;;;;;6.68;3.67;;;;;;;21.18;52.36;101933.78;5087691;28;20089;-58
2022/05/22 03:35:57;;;;;;;5.15;3.00;;;;;;;21.17;52.78;101934.78;5088816;28;20378;-58
2022/05/22 03:38:24;;;;;;;6.45;3.40;;;;;;;21.17;52.80;101933.94;5087031;28;20047;-58
2022/05/22 03:40:50;;;;;;;5.35;2.83;;;;;;;21.16;52.55;101946.59;5088038;28;20087;-58
2022/05/22 03:43:18;;;;;;;6.18;3.47;;;;;;;21.16;52.56;101937.66;5085021;28;20379;-58
2022/05/22 03:45:45;;;;;;;5.97;3.38;;;;;;;21.15;52.31;101939.50;5088076;28;20043;-58
2022/05/22 03:48:12;;;;;;;4.80;3.22;;;;;;;21.15;52.68;101944.03;5089808;28;20579;-60
2022/05/22 03:50:39;;;;;;;6.50;3.38;;;;;;;21.14;52.83;101935.09;5087633;28;20486;-59
2022/05/22 03:53:06;;;;;;;5.05;3.55;;;;;;;21.14;52.73;101935.09;5085719;28;20336;-59
2022/05/22 03:55:33;;;;;;;4.45;3.10;;;;;;;21.14;52.77;101934.25;5089255;28;20066;-61
2022/05/22 03:57:59;;;;;;;8.25;3.80;;;;;;;21.14;52.33;101927.00;5085018;28;20071;-58
2022/05/22 04:00:27;;;;;;;6.40;3.30;;;;;;;21.13;52.82;101928.00;5089445;28;20048;-59
2022/05/22 04:02:53;;;;;;;5.00;3.13;;;;;;;21.13;52.90;101927.16;5087317;28;20036;-59
2022/05/22 04:05:20;;;;;;;5.00;2.72;;;;;;;21.13;52.78;101929.84;5088674;28;21583;-59
2022/05/22 04:07:48;;;;;;;5.88;3.13;;;;;;;21.11;52.35;101921.91;5086895;28;20122;-58
2022/05/22 04:10:17;;;;;;;4.28;2.78;;;;;;;21.12;52.64;101914.69;5087292;28;20127;-59
2022/05/22 04:12:44;;;;;;;5.85;3.35;;;;;;;21.12;52.77;101922.78;5089617;28;20040;-60
2022/05/22 04:15:18;;;;;;;6.75;3.55;;;;;;;21.12;52.53;101914.69;5084908;28;20320;-59
2022/05/22 04:17:45;;;;;;;5.57;3.00;;;;;;;21.11;52.74;101921.91;5085924;28;20040;-59
2022/05/22 04:20:14;;;;;;;6.47;2.60;;;;;;;21.12;52.31;101920.91;5083506;28;20101;-59
2022/05/22 04:25:39;;;;;;;5.95;2.80;;;;;;;21.13;52.93;101916.38;5083254;28;20054;-60
2022/05/22 04:28:06;;;;;;;5.97;2.72;;;;;;;21.13;52.64;101914.53;5087403;28;20056;-58
2022/05/22 04:30:32;;;;;;;6.60;2.88;;;;;;;21.13;52.48;101910.97;5087943;28;20380;-58
2022/05/22 04:32:59;;;;;;;5.03;3.10;;;;;;;21.14;52.71;101916.22;5086357;28;20075;-57
2022/05/22 04:35:25;;;;;;;4.22;2.85;;;;;;;21.14;52.46;101905.44;5089561;28;20127;-58
2022/05/22 04:37:52;;;;;;;6.45;3.00;;;;;;;21.15;52.76;101915.25;5084759;28;20041;-59
2022/05/22 04:40:18;;;;;;;3.85;2.22;;;;;;;21.17;52.21;101918.63;5085788;28;20056;-58
2022/05/22 04:42:45;;;;;;;6.55;3.10;;;;;;;21.18;52.28;101916.75;5088512;28;20048;-59
2022/05/22 04:45:12;;;;;;;6.05;2.90;;;;;;;21.19;52.40;101910.41;5087211;28;20356;-59
2022/05/22 04:47:41;;;;;;;6.28;3.00;;;;;;;21.21;52.31;101913.78;5084133;28;20044;-59
2022/05/22 04:50:10;;;;;;;4.22;2.70;;;;;;;21.27;52.11;101909.66;5089368;28;20132;-58
2022/05/22 04:52:36;;;;;;;4.15;2.58;;;;;;;21.28;52.58;101924.84;5088666;28;20127;-59
2022/05/22 04:55:04;;;;;;;3.63;2.17;;;;;;;21.30;52.22;101918.28;5091100;28;20416;-58
2022/05/22 04:57:30;;;;;;;5.35;2.58;;;;;;;21.33;51.88;101911.78;5085014;28;20048;-58
2022/05/22 04:59:58;;;;;;;3.90;2.28;;;;;;;21.36;52.08;101914.19;5091593;28;20040;-58
2022/05/22 05:02:24;;;;;;;6.28;2.72;;;;;;;21.38;52.12;101901.38;5090927;28;20044;-58
2022/05/22 05:04:55;;;;;;;4.55;2.45;;;;;;;21.40;52.14;101904.78;5088474;28;20111;-58
2022/05/22 05:07:22;;;;;;;4.05;2.50;;;;;;;21.42;51.69;101902.78;5085157;28;20066;-58
2022/05/22 05:09:49;;;;;;;34.25;2.53;;;;;;;21.43;51.85;101899.09;5091287;28;20127;-58
2022/05/22 05:12:17;;;;;;;3.90;2.50;;;;;;;21.44;51.76;101903.50;5089625;28;20056;-58
2022/05/22 05:14:45;;;;;;;4.15;2.30;;;;;;;21.46;51.83;101901.47;5088796;28;20124;-59
2022/05/22 05:17:15;;;;;;;4.88;2.53;;;;;;;21.47;51.58;101897.81;5085668;28;20048;-58
2022/05/22 05:19:42;;;;;;;3.38;2.22;;;;;;;21.49;51.76;101903.03;5091742;28;20134;-58
2022/05/22 05:22:09;;;;;;;5.72;2.78;;;;;;;21.47;51.54;101886.13;5086918;28;20080;-58
2022/05/22 05:24:35;;;;;;;5.25;2.33;;;;;;;21.48;51.44;101890.56;5087259;28;20081;-59
2022/05/22 05:27:02;;;;;;;6.63;2.70;;;;;;;21.47;51.66;101891.53;5087638;28;20399;-58
2022/05/22 05:29:49;;;;;;;5.80;2.38;;;;;;;21.46;52.05;101897.94;5089073;28;20043;-58
2022/05/22 05:32:19;;;;;;;5.85;2.50;;;;;;;21.44;51.87;101895.41;5086486;28;20052;-58
2022/05/22 05:34:46;;;;;;;4.75;2.75;;;;;;;21.43;51.69;101899.09;5087604;28;20046;-58
2022/05/22 05:37:13;;;;;;;5.90;2.75;;;;;;;21.42;52.00;101908.16;5081610;28;20060;-59
2022/05/22 05:39:40;;;;;;;3.40;2.40;;;;;;;21.41;51.65;101914.56;5069542;28;20048;-59
2022/05/22 05:42:06;;;;;;;4.15;2.22;;;;;;;21.41;51.64;101911.88;5086275;28;20052;-59
2022/05/22 05:44:34;;;;;;;3.88;2.20;;;;;;;21.41;51.54;101917.28;5090432;28;20044;-58
2022/05/22 05:47:00;;;;;;;3.70;2.35;;;;;;;21.40;51.61;101913.72;5089763;28;20098;-59
2022/05/22 05:49:27;;;;;;;5.25;2.20;;;;;;;21.40;51.86;101910.19;5089274;28;20101;-59
2022/05/22 05:51:53;;;;;;;8.13;2.45;;;;;;;21.40;52.09;101902.94;5085466;28;20811;-58
2022/05/22 05:54:36;;;;;;;4.00;2.28;;;;;;;21.40;52.13;101908.34;5087465;28;20044;-58
2022/05/22 05:57:03;;;;;;;9.40;2.47;;;;;;;21.41;51.90;101910.03;5083689;28;20109;-59
2022/05/22 05:59:33;;;;;;;3.78;2.10;;;;;;;21.40;51.95;101904.78;5089693;28;20040;-58
2022/05/22 06:02:00;;;;;;;4.85;2.47;;;;;;;21.40;52.04;101902.94;5069209;28;20091;-58
2022/05/22 06:04:26;;;;;;;5.55;1.88;;;;;;;21.39;51.76;101909.34;5089051;28;20044;-58
2022/05/22 06:06:53;;;;;;;4.65;2.33;;;;;;;21.40;51.95;101913.72;5085237;28;20098;-59
2022/05/22 06:09:19;;;;;;;5.10;2.50;;;;;;;21.41;51.83;101914.56;5089256;28;20127;-59
2022/05/22 06:11:46;;;;;;;4.47;1.92;;;;;;;21.39;51.94;101911.19;5087033;28;20662;-58
2022/05/22 06:14:12;;;;;;;4.10;1.92;;;;;;;21.40;51.77;101918.28;5086028;28;20442;-59
2022/05/22 06:16:39;;;;;;;3.72;1.73;;;;;;;21.41;51.59;101919.97;5086620;28;20118;-59
2022/05/22 06:19:05;;;;;;;5.95;2.50;;;;;;;21.41;51.87;101917.28;5085617;28;20044;-58
2022/05/22 06:21:32;;;;;;;4.50;2.42;;;;;;;21.42;51.79;101925.19;5087464;28;20044;-58
2022/05/22 06:23:58;;;;;;;4.55;2.30;;;;;;;21.43;51.75;101912.59;5085631;28;20135;-59
2022/05/22 06:26:25;;;;;;;4.60;2.28;;;;;;;21.43;51.69;101915.28;5088313;28;20074;-58
2022/05/22 06:28:52;;;;;;;6.45;1.92;;;;;;;21.42;51.70;101903.63;5089120;28;20035;-59
2022/05/22 06:31:18;;;;;;;4.93;2.03;;;;;;;21.43;51.57;101905.34;5080473;28;20121;-58
2022/05/22 06:33:45;;;;;;;5.18;2.25;;;;;;;21.44;51.87;101909.72;5085751;28;20108;-58
2022/05/22 06:36:14;;;;;;;4.55;2.05;;;;;;;21.44;52.00;101907.03;5076821;28;20048;-59
2022/05/22 06:41:26;;;;;;;5.88;1.83;;;;;;;21.47;51.81;101914.00;5086542;28;20052;-58
2022/05/22 06:43:53;;;;;;;4.38;1.83;;;;;;;21.48;51.59;101912.13;5079278;28;20131;-59
2022/05/22 06:46:26;;;;;;;2.45;1.60;;;;;;;21.48;51.63;101904.03;5086261;28;20048;-59
2022/05/22 06:48:52;;;;;;;3.53;2.00;;;;;;;21.48;51.85;101914.84;5082535;28;20052;-59
2022/05/22 06:51:19;;;;;;;4.50;1.80;;;;;;;21.49;51.70;101909.28;5083815;28;20058;-59
2022/05/22 06:53:45;;;;;;;6.82;1.73;;;;;;;21.49;51.98;101909.28;5087968;28;20135;-58
2022/05/22 06:56:12;;;;;;;3.58;1.70;;;;;;;21.49;51.99;101911.13;5088111;28;20119;-58
2022/05/22 06:58:38;;;;;;;3.90;1.60;;;;;;;21.51;51.68;101914.50;5086039;28;20131;-59
2022/05/22 07:01:05;;;;;;;4.85;1.75;;;;;;;21.51;51.66;101910.00;5082161;28;20044;-58
2022/05/22 07:03:37;;;;;;;7.00;2.08;;;;;;;21.52;51.93;101910.84;5084846;28;21002;-59
2022/05/22 07:06:03;;;;;;;4.63;1.98;;;;;;;21.53;52.11;101913.38;5086239;28;20067;-58
2022/05/22 07:08:30;;;;;;;4.45;2.15;;;;;;;21.53;51.77;101918.75;5085206;28;20040;-59
2022/05/22 07:13:41;;;;;;;7.25;2.80;;;;;;;21.56;51.94;101918.47;5087057;28;20040;-59
2022/05/22 07:16:08;;;;;;;6.88;2.90;;;;;;;21.56;51.91;101915.78;5088764;28;20458;-59
2022/05/22 07:18:49;;;;;;;5.30;2.75;;;;;;;21.57;51.67;101914.75;5086117;28;20040;-58
2022/05/22 07:21:16;;;;;;;7.75;2.13;;;;;;;21.58;51.97;101924.53;5086132;28;20418;-59
2022/05/22 07:23:42;;;;;;;4.95;2.72;;;;;;;21.59;51.74;101922.72;5081248;28;20045;-58
2022/05/22 07:26:09;;;;;;;6.72;3.60;;;;;;;21.60;51.63;101929.81;5083756;28;20074;-59
2022/05/22 07:28:35;;;;;;;7.00;3.55;;;;;;;21.61;51.68;101926.94;5082353;28;20135;-59
2022/05/22 07:31:02;;;;;;;7.90;4.15;;;;;;;21.61;51.61;101926.94;5088658;28;20040;-57
2022/05/22 07:33:29;;;;;;;8.02;3.33;;;;;;;21.62;51.32;101920.53;5088364;28;20142;-58
2022/05/22 07:35:57;;;;;;;6.93;3.40;;;;;;;21.62;51.57;101915.16;5087429;28;20052;-59
2022/05/22 07:38:24;;;;;;;8.38;3.85;;;;;;;21.64;51.44;101915.03;5088845;28;20067;-59
2022/05/22 07:40:52;;;;;;;6.20;3.90;;;;;;;21.64;51.62;101915.03;5086562;28;20050;-59
2022/05/22 07:43:19;;;;;;;6.70;3.92;;;;;;;21.63;51.65;101908.78;5090492;28;20036;-59
2022/05/22 07:45:46;;;;;;;7.35;3.80;;;;;;;21.64;51.43;101915.03;5086984;28;20051;-58
2022/05/22 07:48:13;;;;;;;8.70;3.90;;;;;;;21.65;51.32;101911.31;5086115;28;20040;-59
2022/05/22 07:50:40;;;;;;;7.53;3.83;;;;;;;21.65;51.47;101912.16;5086580;28;20320;-59
2022/05/22 07:53:07;;;;;;;6.20;3.55;;;;;;;21.66;51.08;101910.31;5088455;28;20051;-59
2022/05/22 07:55:34;;;;;;;8.45;3.97;;;;;;;21.67;51.24;101914.72;5091398;28;20135;-59
2022/05/22 07:58:01;;;;;;;8.85;4.03;;;;;;;21.68;51.34;101911.03;5087823;28;20049;-59
2022/05/22 08:00:27;;;;;;;7.82;3.55;;;;;;;21.68;51.22;101897.53;5082126;28;20774;-59
2022/05/22 08:02:54;;;;;;;9.68;4.03;;;;;;;21.69;51.19;101899.22;5083226;28;20494;-59
2022/05/22 08:05:21;;;;;;;7.70;3.70;;;;;;;21.70;50.79;101900.91;5084458;28;20046;-59
2022/05/22 08:07:48;;;;;;;9.10;4.05;;;;;;;21.71;50.96;101888.25;5087061;28;20648;-59
2022/05/22 08:10:17;;;;;;;11.80;4.55;;;;;;;21.72;51.25;101884.59;5088971;28;20036;-59
2022/05/22 08:12:48;;;;;;;7.05;3.85;;;;;;;21.73;50.83;101892.50;5086582;28;20493;-58
2022/05/22 08:15:19;;;;;;;11.18;4.90;;;;;;;21.73;50.92;101884.41;5093509;28;20396;-59
2022/05/22 08:17:46;;;;;;;8.23;4.20;;;;;;;21.73;50.54;101873.63;5086415;28;20044;-59
2022/05/22 08:20:15;;;;;;;12.90;4.90;;;;;;;21.74;51.02;101875.31;5084501;28;20127;-58
2022/05/22 08:22:44;;;;;;;13.73;4.97;;;;;;;21.76;51.40;101869.78;5082392;28;22700;-59
2022/05/22 08:25:13;;;;;;;16.35;4.90;;;;;;;21.77;52.26;101857.97;5087901;28;20036;-59
2022/05/22 08:27:40;;;;;;;16.90;5.95;;;;;;;21.79;53.34;101861.34;5090680;28;20070;-59
2022/05/22 08:30:09;;;;;;;14.00;5.15;;;;;;;21.80;54.00;101852.28;5082077;28;20119;-58
2022/05/22 08:32:37;;;;;;;17.33;5.40;;;;;;;21.82;54.33;101855.66;5091346;28;20043;-58
2022/05/22 08:35:06;;;;;;;19.38;5.35;;;;;;;21.83;54.08;101846.56;5085322;28;20043;-59
2022/05/22 08:37:33;;;;;;;16.45;5.38;;;;;;;21.85;54.16;101848.09;5082732;28;20090;-59
2022/05/22 08:40:01;;;;;;;17.63;6.30;;;;;;;21.86;54.69;101843.56;5087591;28;20131;-59
2022/05/22 08:42:47;;;;;;;18.95;6.20;;;;;;;21.88;54.73;101841.56;5065242;28;20599;-59
2022/05/22 08:45:26;;;;;;;18.23;6.43;;;;;;;21.91;55.08;101841.25;5087626;28;20171;-58
2022/05/22 08:48:14;;;;;;;18.25;6.32;;;;;;;21.92;55.69;101838.38;5087068;28;20040;-59
2022/05/22 08:50:44;;;;;;;16.77;5.47;;;;;;;21.94;55.71;101824.72;5087925;28;20050;-58
2022/05/22 08:53:34;;;;;;;18.63;6.57;;;;;;;21.96;56.28;101811.09;5088785;28;20167;-59
2022/05/22 08:58:59;;;;;;;17.85;5.53;;;;;;;21.99;56.20;101811.63;5085277;28;20175;-58
2022/05/22 09:01:59;;;;;;;17.75;5.25;;;;;;;22.02;56.27;101815.84;5084705;28;20046;-59
2022/05/22 09:04:45;;;;;;;17.05;5.53;;;;;;;22.03;57.15;101813.00;5086413;28;21199;-58
2022/05/22 09:07:17;;;;;;;19.45;6.68;;;;;;;22.05;56.68;101802.88;5085671;28;20056;-59
2022/05/22 09:09:48;;;;;;;18.35;5.88;;;;;;;22.07;57.18;101802.72;5084592;28;20048;-59
2022/05/22 09:12:23;;;;;;;24.38;6.72;;;;;;;22.09;56.35;101803.44;5083733;28;20406;-59
2022/05/22 09:15:19;;;;;;;25.65;8.63;;;;;;;22.11;56.79;101790.59;5079571;28;20058;-60
2022/05/22 09:18:31;;;;;;;32.72;7.32;;;;;;;22.16;57.47;101799.97;5049020;28;20079;-60
2022/05/22 09:21:20;;;;;;;25.42;7.80;;;;;;;22.23;57.98;101802.91;4998349;28;20129;-59
2022/05/22 09:23:55;;;;;;;19.10;6.10;;;;;;;22.29;57.02;101794.16;4995214;28;20070;-59
2022/05/22 09:26:24;;;;;;;17.73;6.93;;;;;;;22.34;56.50;101785.56;5049687;28;20135;-61
2022/05/22 09:29:05;;;;;;;26.02;6.40;;;;;;;22.39;56.62;101773.28;5070132;28;20592;-58
2022/05/22 09:31:54;;;;;;;26.17;6.93;;;;;;;22.46;57.34;101780.75;5073813;28;20131;-57
2022/05/22 09:34:59;;;;;;;18.98;6.32;;;;;;;22.54;56.49;101787.03;5077506;28;20063;-61
2022/05/22 09:37:44;;;;;;;17.40;6.57;;;;;;;22.62;55.81;101786.22;4965310;28;20096;-61
2022/05/22 09:40:28;;;;;;;16.42;6.70;;;;;;;22.67;57.71;101776.66;5065718;28;20139;-59
2022/05/22 09:43:03;;;;;;;18.48;5.28;;;;;;;22.74;55.57;101776.00;5071624;28;20058;-62
2022/05/22 09:45:51;;;;;;;14.70;5.30;;;;;;;22.80;55.83;101769.94;5072206;28;20054;-60
2022/05/22 09:48:51;;;;;;;17.08;5.75;;;;;;;22.87;56.00;101765.56;5069429;28;20044;-62
2022/05/22 09:51:42;;;;;;;16.05;4.60;;;;;;;22.94;54.65;101771.22;5068849;28;20139;-62
2022/05/22 09:54:27;;;;;;;13.73;4.07;;;;;;;22.97;51.79;101770.88;5058475;28;20098;-59
2022/05/22 09:57:19;;;;;;;14.70;4.57;;;;;;;23.01;51.19;101778.50;5011786;28;20094;-60
2022/05/22 10:00:04;;;;;;;17.15;4.65;;;;;;;23.05;51.92;101769.03;5067089;28;21045;-59
2022/05/22 10:02:48;;;;;;;15.88;5.20;;;;;;;23.11;53.51;101770.22;5076526;28;20841;-60
2022/05/22 10:05:50;;;;;;;15.30;5.38;;;;;;;23.14;52.32;101768.06;5072365;28;20151;-57
2022/05/22 10:08:52;;;;;;;10.57;3.95;;;;;;;23.19;52.58;101769.41;5069447;28;20044;-57
2022/05/22 10:11:48;;;;;;;11.80;4.32;;;;;;;23.23;51.10;101768.91;5073138;28;20055;-58
2022/05/22 10:14:56;;;;;;;13.93;3.95;;;;;;;23.27;50.80;101758.59;5068803;28;20093;-59
2022/05/22 10:17:56;;;;;;;10.80;3.70;;;;;;;23.31;50.49;101755.41;5022574;28;20460;-60
2022/05/22 10:20:54;;;;;;;10.82;3.55;;;;;;;23.34;49.35;101751.53;5069397;28;20593;-59
2022/05/22 10:23:45;;;;;;;12.05;3.38;;;;;;;23.36;48.25;101758.47;5069241;28;20041;-60
2022/05/22 10:26:41;;;;;;;7.88;2.80;;;;;;;23.41;47.78;101755.28;5068117;28;20054;-54
2022/05/22 10:29:29;;;;;;;7.80;3.55;;;;;;;23.42;48.11;101748.00;4994297;28;20069;-53
2022/05/22 10:32:07;;;;;;;8.50;3.10;;;;;;;23.44;48.32;101748.66;5020707;28;20689;-60
2022/05/22 10:34:39;;;;;;;8.00;2.55;;;;;;;23.46;47.81;101742.06;5076012;28;20134;-60
2022/05/22 10:37:29;;;;;;;11.15;2.80;;;;;;;23.47;47.80;101735.63;5022503;28;20056;-61
2022/05/22 10:39:57;;;;;;;10.00;2.80;;;;;;;23.49;47.51;101741.75;5070461;28;20051;-61
2022/05/22 10:42:47;;;;;;;9.60;2.75;;;;;;;23.50;46.97;101732.59;5072866;28;20048;-61
2022/05/22 10:45:32;;;;;;;9.55;2.88;;;;;;;23.51;47.00;101723.47;5071877;28;20046;-61
2022/05/22 10:48:24;;;;;;;7.95;2.80;;;;;;;23.54;48.08;101722.28;5072884;28;20135;-61
2022/05/22 10:50:57;;;;;;;10.00;2.67;;;;;;;23.56;47.72;101710.28;5075536;28;20048;-60
2022/05/22 10:53:48;;;;;;;10.15;3.15;;;;;;;23.57;47.48;101719.25;5071840;28;20426;-60
2022/05/22 10:56:19;;;;;;;4.57;2.58;;;;;;;23.59;47.21;101703.69;5025294;28;20320;-60
2022/05/22 10:59:22;;;;;;;8.70;3.40;;;;;;;23.60;47.69;101705.41;5072749;28;20359;-61
2022/05/22 11:02:00;;;;;;;14.30;3.88;;;;;;;23.63;48.39;101702.31;5074178;28;20054;-61
2022/05/22 11:04:43;;;;;;;9.75;2.67;;;;;;;23.63;46.93;101703.16;5072214;28;20048;-62
2022/05/22 11:07:11;;;;;;;15.15;3.60;;;;;;;23.66;46.31;101712.00;5071213;28;20084;-61
2022/05/22 11:09:47;;;;;;;12.40;3.10;;;;;;;23.67;45.38;101700.16;5074838;28;20434;-61
2022/05/22 11:12:19;;;;;;;7.45;3.17;;;;;;;23.68;46.36;101694.59;5077477;28;20355;-61
2022/05/22 11:14:46;;;;;;;10.10;2.83;;;;;;;23.69;45.66;101687.31;5079252;28;20646;-61
2022/05/22 11:17:19;;;;;;;11.95;3.20;;;;;;;23.70;46.30;101680.88;5027936;28;20052;-61
2022/05/22 11:19:49;;;;;;;7.55;2.72;;;;;;;23.71;45.94;101674.44;5075400;28;20045;-60
2022/05/22 11:22:59;;;;;;;9.30;3.30;;;;;;;23.71;46.55;101675.28;5077706;28;20036;-62
2022/05/22 11:25:44;;;;;;;10.20;3.17;;;;;;;23.75;45.52;101670.38;5074823;28;20057;-62
2022/05/22 11:28:20;;;;;;;7.80;3.03;;;;;;;23.75;45.90;101665.81;5079705;28;20326;-61
2022/05/22 11:31:16;;;;;;;7.72;2.90;;;;;;;23.76;46.95;101655.81;5075823;28;20499;-61
2022/05/22 11:33:46;;;;;;;10.13;3.05;;;;;;;23.78;46.53;101668.16;5073542;28;20056;-60
2022/05/22 11:36:37;;;;;;;10.05;2.65;;;;;;;23.78;45.14;101654.63;5032824;28;20847;-61
2022/05/22 11:39:41;;;;;;;6.38;3.10;;;;;;;23.81;45.67;101661.59;5049848;28;20132;-62
2022/05/22 11:42:26;;;;;;;10.35;3.83;;;;;;;23.82;46.19;101655.16;5076194;28;20140;-61
2022/05/22 11:45:14;;;;;;;12.13;6.45;;;;;;;23.82;46.66;101650.56;5074329;28;20368;-60
2022/05/22 11:48:05;;;;;;;7.75;3.72;;;;;;;23.83;45.56;101646.84;5075338;28;20361;-59
2022/05/22 11:50:43;;;;;;;8.32;3.45;;;;;;;23.84;45.22;101650.38;5076981;28;20048;-58
2022/05/22 11:53:15;;;;;;;9.23;3.70;;;;;;;23.82;45.80;101638.91;5073688;28;20054;-58
2022/05/22 11:56:05;;;;;;;9.23;3.33;;;;;;;23.81;45.83;101635.34;5071868;28;20048;-58
2022/05/22 11:58:42;;;;;;;6.60;2.67;;;;;;;23.82;43.56;101637.03;5016042;28;20041;-58
2022/05/22 12:01:27;;;;;;;7.65;3.45;;;;;;;23.84;44.47;101639.56;5036142;28;20217;-58
2022/05/22 12:04:05;;;;;;;9.60;3.75;;;;;;;23.84;44.50;101636.84;5037955;28;20049;-58